createdAt,value
2022-10-18T00:00:40.795Z,11.50
2022-10-18T00:03:08.138Z,11.60
2022-10-18T00:05:35.551Z,11.70
2022-10-18T00:08:02.905Z,11.60
2022-10-18T00:10:30.277Z,11.60
2022-10-18T00:12:57.606Z,11.60
2022-10-18T00:15:25.055Z,11.70
2022-10-18T00:17:52.424Z,11.70
2022-10-18T00:20:19.875Z,11.60
2022-10-18T00:22:47.221Z,11.60
2022-10-18T00:25:14.558Z,11.50
2022-10-18T00:27:41.943Z,11.50
2022-10-18T00:30:10.002Z,11.50
2022-10-18T00:32:41.517Z,11.50
2022-10-18T00:35:09.529Z,11.40
2022-10-18T00:37:37.036Z,11.60
2022-10-18T00:40:05.248Z,11.50
2022-10-18T00:42:34.946Z,11.70
2022-10-18T00:45:21.364Z,11.70
2022-10-18T00:47:56.842Z,11.50
2022-10-18T00:50:26.477Z,11.40
2022-10-18T00:53:00.428Z,11.50
2022-10-18T00:55:28.906Z,11.60
2022-10-18T00:57:57.495Z,11.60
2022-10-18T01:00:24.949Z,11.60
2022-10-18T01:02:52.459Z,11.60
2022-10-18T01:05:20.487Z,11.50
2022-10-18T01:08:22.785Z,11.60
2022-10-18T01:11:35.865Z,11.50
2022-10-18T01:14:38.106Z,11.60
2022-10-18T01:17:35.786Z,11.60
2022-10-18T01:20:38.141Z,11.50
2022-10-18T01:23:37.959Z,11.40
2022-10-18T01:26:57.193Z,11.50
2022-10-18T01:30:03.824Z,11.40
2022-10-18T01:32:39.798Z,11.20
2022-10-18T01:35:18.010Z,11.20
2022-10-18T01:37:48.359Z,11.10
2022-10-18T01:40:19.955Z,11.20
2022-10-18T01:42:49.158Z,11.10
2022-10-18T01:45:18.768Z,11.10
2022-10-18T01:47:47.970Z,11.30
2022-10-18T01:50:15.414Z,11.20
2022-10-18T01:52:49.706Z,11.20
2022-10-18T01:55:18.352Z,11.10
2022-10-18T01:58:13.666Z,11.00
2022-10-18T02:00:44.414Z,11.10
2022-10-18T02:03:21.772Z,11.10
2022-10-18T02:06:18.533Z,11.10
2022-10-18T02:09:02.987Z,11.00
2022-10-18T02:11:32.320Z,11.00
2022-10-18T02:14:14.228Z,11.00
2022-10-18T02:16:52.843Z,10.90
2022-10-18T02:19:30.974Z,11.00
2022-10-18T02:22:00.032Z,11.00
2022-10-18T02:24:41.820Z,11.10
2022-10-18T02:27:09.889Z,11.10
2022-10-18T02:29:37.690Z,11.10
2022-10-18T02:32:15.632Z,11.20
2022-10-18T02:35:08.547Z,11.20
2022-10-18T02:37:39.916Z,11.20
2022-10-18T02:40:09.729Z,11.10
2022-10-18T02:42:45.328Z,11.10
2022-10-18T02:45:13.899Z,11.10
2022-10-18T02:47:41.301Z,11.00
2022-10-18T02:50:09.321Z,10.90
2022-10-18T02:52:37.022Z,10.90
2022-10-18T02:55:05.719Z,10.90
2022-10-18T02:57:33.593Z,10.90
2022-10-18T03:00:01.235Z,10.90
2022-10-18T03:02:28.583Z,10.80
2022-10-18T03:04:55.961Z,10.60
2022-10-18T03:07:23.382Z,10.70
2022-10-18T03:09:50.696Z,10.70
2022-10-18T03:12:18.091Z,10.80
2022-10-18T03:14:45.420Z,10.70
2022-10-18T03:17:12.865Z,10.70
2022-10-18T03:19:40.230Z,10.60
2022-10-18T03:22:07.606Z,10.50
2022-10-18T03:24:34.887Z,10.50
2022-10-18T03:27:03.075Z,10.70
2022-10-18T03:29:30.368Z,10.60
2022-10-18T03:31:57.717Z,10.60
2022-10-18T03:34:25.113Z,10.60
2022-10-18T03:36:52.442Z,10.60
2022-10-18T03:39:19.778Z,10.80
2022-10-18T03:41:47.148Z,11.00
2022-10-18T03:44:14.452Z,10.90
2022-10-18T03:46:41.835Z,10.90
2022-10-18T03:49:09.089Z,11.00
2022-10-18T03:51:36.403Z,11.00
2022-10-18T03:54:04.166Z,11.10
2022-10-18T03:56:31.533Z,11.10
2022-10-18T03:58:58.905Z,11.10
2022-10-18T04:01:26.397Z,11.20
2022-10-18T04:03:53.797Z,11.30
2022-10-18T04:06:21.098Z,11.40
2022-10-18T04:08:48.425Z,11.40
2022-10-18T04:11:15.735Z,11.50
2022-10-18T04:13:46.211Z,11.60
2022-10-18T04:16:13.521Z,11.70
2022-10-18T04:18:40.894Z,11.80
2022-10-18T04:21:08.194Z,11.90
2022-10-18T04:23:37.982Z,11.90
2022-10-18T04:26:06.834Z,12.00
2022-10-18T04:28:35.500Z,12.10
2022-10-18T04:31:03.011Z,12.20
2022-10-18T04:33:30.354Z,12.20
2022-10-18T04:35:57.637Z,12.30
2022-10-18T04:38:24.990Z,12.30
2022-10-18T04:40:52.288Z,12.40
2022-10-18T04:43:22.195Z,12.50
2022-10-18T04:45:51.143Z,12.40
2022-10-18T04:48:19.145Z,12.50
2022-10-18T04:50:50.666Z,12.50
2022-10-18T04:53:18.952Z,12.50
2022-10-18T04:55:49.802Z,12.60
2022-10-18T04:58:20.081Z,12.60
2022-10-18T05:00:47.863Z,12.60
2022-10-18T05:03:15.967Z,12.60
2022-10-18T05:06:00.731Z,12.60
2022-10-18T05:08:28.648Z,12.60
2022-10-18T05:10:56.055Z,12.60
2022-10-18T05:13:23.461Z,12.60
2022-10-18T05:15:50.956Z,12.60
2022-10-18T05:18:18.511Z,12.60
2022-10-18T05:20:46.656Z,12.60
2022-10-18T05:23:14.021Z,12.70
2022-10-18T05:25:42.397Z,12.70
2022-10-18T05:28:34.043Z,12.70
2022-10-18T05:31:02.253Z,12.70
2022-10-18T05:33:30.094Z,12.70
2022-10-18T05:35:57.658Z,12.70
2022-10-18T05:38:25.824Z,12.70
2022-10-18T05:40:53.214Z,12.70
2022-10-18T05:43:20.826Z,12.70
2022-10-18T05:45:51.606Z,12.70
2022-10-18T05:48:19.582Z,12.80
2022-10-18T05:50:46.884Z,12.80
2022-10-18T05:53:35.142Z,12.80
2022-10-18T05:56:02.456Z,12.80
2022-10-18T05:58:29.853Z,12.80
2022-10-18T06:01:01.811Z,12.90
2022-10-18T06:03:30.889Z,12.80
2022-10-18T06:06:06.948Z,12.90
2022-10-18T06:08:35.076Z,12.80
2022-10-18T06:11:13.474Z,12.80
2022-10-18T06:13:46.194Z,12.90
2022-10-18T06:16:14.823Z,12.90
2022-10-18T06:18:42.230Z,13.00
2022-10-18T06:21:10.078Z,13.10
2022-10-18T06:23:37.473Z,13.10
2022-10-18T06:26:07.291Z,13.10
2022-10-18T06:28:36.604Z,13.20
2022-10-18T06:31:05.307Z,13.20
2022-10-18T06:33:33.844Z,13.20
2022-10-18T06:36:03.862Z,13.30
2022-10-18T06:38:31.816Z,13.30
2022-10-18T06:41:00.016Z,13.40
2022-10-18T06:43:29.699Z,13.40
2022-10-18T06:45:57.183Z,13.40
2022-10-18T06:48:24.625Z,13.40
2022-10-18T06:50:57.296Z,13.40
2022-10-18T06:53:26.121Z,13.50
2022-10-18T06:55:58.995Z,13.50
2022-10-18T06:58:26.299Z,13.60
2022-10-18T07:00:53.645Z,13.70
2022-10-18T07:03:21.945Z,13.80
2022-10-18T07:05:50.199Z,13.90
2022-10-18T07:08:17.796Z,13.90
2022-10-18T07:10:53.245Z,13.90
2022-10-18T07:13:32.480Z,14.00
2022-10-18T07:16:05.820Z,14.10
2022-10-18T07:18:34.695Z,14.10
2022-10-18T07:21:07.068Z,14.20
2022-10-18T07:23:36.484Z,14.20
2022-10-18T07:26:11.637Z,14.20
2022-10-18T07:28:39.044Z,14.30
2022-10-18T07:31:08.287Z,14.30
2022-10-18T07:33:38.037Z,14.20
2022-10-18T07:36:08.748Z,14.30
2022-10-18T07:38:36.860Z,14.40
2022-10-18T07:41:09.083Z,14.60
2022-10-18T07:43:36.646Z,14.60
2022-10-18T07:46:05.185Z,14.60
2022-10-18T07:48:32.617Z,14.60
2022-10-18T07:51:01.143Z,14.50
2022-10-18T07:53:29.366Z,14.60
2022-10-18T07:56:03.442Z,14.60
2022-10-18T07:58:34.052Z,14.70
2022-10-18T08:01:06.043Z,14.60
2022-10-18T08:03:33.733Z,14.70
2022-10-18T08:06:01.505Z,14.70
2022-10-18T08:08:29.636Z,14.80
2022-10-18T08:11:03.409Z,14.80
2022-10-18T08:13:30.857Z,14.80
2022-10-18T08:16:06.983Z,14.80
2022-10-18T08:18:36.949Z,14.80
2022-10-18T08:21:16.585Z,14.80
2022-10-18T08:23:56.427Z,14.80
2022-10-18T08:26:26.208Z,14.80
2022-10-18T08:29:21.099Z,14.90
2022-10-18T08:31:53.780Z,14.90
2022-10-18T08:34:23.428Z,14.90
2022-10-18T08:36:53.005Z,15.00
2022-10-18T08:39:20.271Z,14.90
2022-10-18T08:42:10.028Z,15.00
2022-10-18T08:44:47.128Z,15.00
2022-10-18T08:47:21.078Z,15.00
2022-10-18T08:50:20.242Z,15.00
2022-10-18T08:53:26.725Z,15.10
2022-10-18T08:56:15.421Z,15.10
2022-10-18T08:58:44.721Z,15.20
2022-10-18T09:01:44.296Z,15.10
2022-10-18T09:04:39.467Z,15.30
2022-10-18T09:07:20.027Z,15.40
2022-10-18T09:10:20.506Z,15.40
2022-10-18T09:13:48.417Z,15.40
2022-10-18T09:16:50.344Z,15.70
2022-10-18T09:20:10.644Z,15.80
2022-10-18T09:23:28.584Z,16.00
2022-10-18T09:26:10.248Z,16.10
2022-10-18T09:29:25.269Z,16.20
2022-10-18T09:32:50.667Z,16.00
2022-10-18T09:35:49.526Z,16.10
2022-10-18T09:38:22.760Z,16.30
2022-10-18T09:41:07.559Z,16.40
2022-10-18T09:44:14.814Z,16.60
2022-10-18T09:46:50.958Z,16.80
2022-10-18T09:49:30.923Z,16.80
2022-10-18T09:52:02.208Z,16.60
2022-10-18T09:54:38.051Z,16.70
2022-10-18T09:57:13.159Z,16.60
2022-10-18T09:59:49.191Z,16.60
2022-10-18T10:02:18.962Z,16.70
2022-10-18T10:04:46.496Z,16.90
2022-10-18T10:07:21.272Z,17.00
2022-10-18T10:10:06.135Z,17.20
2022-10-18T10:12:36.610Z,17.20
2022-10-18T10:15:28.231Z,17.30
2022-10-18T10:18:04.948Z,17.50
2022-10-18T10:20:52.164Z,17.40
2022-10-18T10:23:32.070Z,17.30
2022-10-18T10:26:03.982Z,16.80
2022-10-18T10:28:33.311Z,16.60
2022-10-18T10:31:27.282Z,16.50
2022-10-18T10:34:20.244Z,16.40
2022-10-18T10:36:50.139Z,16.40
2022-10-18T10:39:19.432Z,16.20
2022-10-18T10:42:13.475Z,16.10
2022-10-18T10:44:54.531Z,15.90
2022-10-18T10:47:32.275Z,15.80
2022-10-18T10:49:59.622Z,15.70
2022-10-18T10:52:29.376Z,15.70
2022-10-18T10:55:06.228Z,15.60
2022-10-18T10:57:47.277Z,15.60
2022-10-18T11:00:51.344Z,15.50
2022-10-18T11:03:29.101Z,15.40
2022-10-18T11:05:58.875Z,15.40
2022-10-18T11:08:32.998Z,15.30
2022-10-18T11:11:39.654Z,15.30
2022-10-18T11:14:26.913Z,15.30
2022-10-18T11:17:22.133Z,15.30
2022-10-18T11:20:53.927Z,15.40
2022-10-18T11:23:26.144Z,15.30
2022-10-18T11:26:11.534Z,15.40
2022-10-18T11:29:27.995Z,15.40
2022-10-18T11:32:20.436Z,15.50
2022-10-18T11:35:10.363Z,15.60
2022-10-18T11:38:16.029Z,15.70
2022-10-18T11:49:42.405Z,15.60
2022-10-18T11:52:32.173Z,15.70
2022-10-18T11:55:38.510Z,15.70
2022-10-18T12:02:11.911Z,15.70
2022-10-18T12:04:59.789Z,15.70
2022-10-18T12:07:49.657Z,15.70
2022-10-18T12:10:26.320Z,15.70
2022-10-18T12:13:08.327Z,15.60
2022-10-18T12:15:39.452Z,15.60
2022-10-18T12:18:14.065Z,15.70
2022-10-18T12:20:50.875Z,15.70
2022-10-18T12:23:42.336Z,15.70
2022-10-18T12:26:11.512Z,15.80
2022-10-18T12:28:55.335Z,15.80
2022-10-18T12:31:37.038Z,15.70
2022-10-18T12:34:54.765Z,15.60
2022-10-18T12:37:45.855Z,15.60
2022-10-18T12:40:23.613Z,15.50
2022-10-18T12:42:53.451Z,15.50
2022-10-18T12:45:32.454Z,15.40
2022-10-18T12:48:02.520Z,15.40
2022-10-18T12:50:39.173Z,15.40
2022-10-18T12:53:20.429Z,15.40
2022-10-18T12:55:51.774Z,15.50
2022-10-18T12:58:29.782Z,15.40
2022-10-18T13:01:03.093Z,15.30
2022-10-18T13:03:51.542Z,15.30
2022-10-18T13:06:19.268Z,15.30
2022-10-18T13:08:48.310Z,15.30
2022-10-18T13:11:30.392Z,15.30
2022-10-18T13:14:11.018Z,15.30
2022-10-18T13:17:21.485Z,15.30
2022-10-18T13:20:39.651Z,15.30
2022-10-18T13:23:33.961Z,15.30
2022-10-18T13:26:32.092Z,15.30
2022-10-18T13:29:26.815Z,15.30
2022-10-18T13:32:07.832Z,15.30
2022-10-18T13:34:39.101Z,15.40
2022-10-18T13:37:24.565Z,15.40
2022-10-18T13:40:13.545Z,15.30
2022-10-18T13:42:41.020Z,15.30
2022-10-18T13:45:32.035Z,15.30
2022-10-18T13:48:52.018Z,15.20
2022-10-18T13:51:48.053Z,15.20
2022-10-18T13:54:56.237Z,15.20
2022-10-18T13:58:06.087Z,15.20
2022-10-18T14:01:15.608Z,15.30
2022-10-18T14:04:28.694Z,15.30
2022-10-18T14:07:02.412Z,15.30
2022-10-18T14:09:54.961Z,15.30
2022-10-18T14:12:32.567Z,15.40
2022-10-18T14:15:17.701Z,15.40
2022-10-18T14:18:06.307Z,15.50
2022-10-18T14:21:01.445Z,15.50
2022-10-18T14:23:31.486Z,15.50
2022-10-18T14:26:16.549Z,15.50
2022-10-18T14:29:00.679Z,15.50
2022-10-18T14:31:28.381Z,15.50
2022-10-18T14:33:58.730Z,15.50
2022-10-18T14:36:30.074Z,15.50
2022-10-18T14:39:06.221Z,15.50
2022-10-18T14:41:47.369Z,15.40
2022-10-18T14:44:35.041Z,15.40
2022-10-18T14:47:14.596Z,15.40
2022-10-18T14:49:46.217Z,15.30
2022-10-18T14:52:21.979Z,15.20
2022-10-18T14:54:54.094Z,15.10
2022-10-18T14:57:34.299Z,15.10
2022-10-18T15:00:16.950Z,15.20
2022-10-18T15:02:44.642Z,15.20
2022-10-18T15:05:51.151Z,15.10
2022-10-18T15:08:19.108Z,15.20
2022-10-18T15:10:46.939Z,15.20
2022-10-18T15:13:16.280Z,15.10
2022-10-18T15:15:44.652Z,15.20
2022-10-18T15:18:24.528Z,15.20
2022-10-18T15:21:22.393Z,15.20
2022-10-18T15:23:50.352Z,15.20
2022-10-18T15:26:29.955Z,15.20
2022-10-18T15:29:01.510Z,15.30
2022-10-18T15:31:37.182Z,15.30
2022-10-18T15:34:26.101Z,15.30
2022-10-18T15:36:55.665Z,15.30
2022-10-18T15:39:30.546Z,15.20
2022-10-18T15:42:03.730Z,15.10
2022-10-18T15:44:46.326Z,14.90
2022-10-18T15:47:22.943Z,14.80
2022-10-18T15:49:58.337Z,14.70
2022-10-18T15:52:39.070Z,14.60
2022-10-18T15:55:52.416Z,14.50
2022-10-18T15:58:26.157Z,14.40
2022-10-18T16:00:59.240Z,14.30
2022-10-18T16:03:26.899Z,14.20
2022-10-18T16:06:03.788Z,14.20
2022-10-18T16:08:32.351Z,14.20
2022-10-18T16:10:59.671Z,14.10
2022-10-18T16:13:27.192Z,14.10
2022-10-18T16:15:57.263Z,14.10
2022-10-18T16:18:25.575Z,14.10
2022-10-18T16:20:53.261Z,14.10
2022-10-18T16:23:26.041Z,14.10
2022-10-18T16:25:53.653Z,14.00
2022-10-18T16:28:24.195Z,14.00
2022-10-18T16:30:57.619Z,14.00
2022-10-18T16:33:26.037Z,14.00
2022-10-18T16:35:54.001Z,13.90
2022-10-18T16:38:35.178Z,13.90
2022-10-18T16:41:05.343Z,13.80
2022-10-18T16:43:34.652Z,13.80
2022-10-18T16:46:03.179Z,13.80
2022-10-18T16:48:30.880Z,13.70
2022-10-18T16:50:59.345Z,13.70
2022-10-18T16:53:28.097Z,13.70
2022-10-18T16:55:58.807Z,13.70
2022-10-18T16:58:27.791Z,13.70
2022-10-18T17:00:55.675Z,13.70
2022-10-18T17:03:23.436Z,13.60
2022-10-18T17:05:50.692Z,13.50
2022-10-18T17:08:23.706Z,13.30
2022-10-18T17:10:53.094Z,13.20
2022-10-18T17:13:21.448Z,13.10
2022-10-18T17:15:49.808Z,13.00
2022-10-18T17:18:24.758Z,12.80
2022-10-18T17:20:52.303Z,12.70
2022-10-18T17:23:19.638Z,12.60
2022-10-18T17:25:59.067Z,12.50
2022-10-18T17:28:34.810Z,12.40
2022-10-18T17:31:02.110Z,12.40
2022-10-18T17:33:29.439Z,12.30
2022-10-18T17:35:56.718Z,12.30
2022-10-18T17:38:24.064Z,12.30
2022-10-18T17:40:52.841Z,12.30
2022-10-18T17:43:20.666Z,12.20
2022-10-18T17:45:55.556Z,12.10
2022-10-18T17:48:24.613Z,12.00
2022-10-18T17:50:51.928Z,11.90
2022-10-18T17:53:23.016Z,11.80
2022-10-18T17:55:50.512Z,11.80
2022-10-18T17:58:17.884Z,11.90
2022-10-18T18:00:45.163Z,11.90
2022-10-18T18:03:13.571Z,12.00
2022-10-18T18:05:40.985Z,12.10
2022-10-18T18:08:08.304Z,12.20
2022-10-18T18:10:35.989Z,12.30
2022-10-18T18:13:03.419Z,12.40
2022-10-18T18:15:31.014Z,12.40
2022-10-18T18:17:58.515Z,12.50
2022-10-18T18:20:26.689Z,12.60
2022-10-18T18:22:54.178Z,12.70
2022-10-18T18:25:21.464Z,12.70
2022-10-18T18:27:48.798Z,12.70
2022-10-18T18:30:17.897Z,12.70
2022-10-18T18:32:45.428Z,12.70
2022-10-18T18:35:13.203Z,12.70
2022-10-18T18:37:40.588Z,12.70
2022-10-18T18:40:08.609Z,12.80
2022-10-18T18:42:36.166Z,12.80
2022-10-18T18:45:03.860Z,12.80
2022-10-18T18:47:35.404Z,12.80
2022-10-18T18:50:02.928Z,12.80
2022-10-18T18:52:30.416Z,12.80
2022-10-18T18:54:57.952Z,12.80
2022-10-18T18:57:25.285Z,12.80
2022-10-18T18:59:52.564Z,12.80
2022-10-18T19:02:20.161Z,12.70
2022-10-18T19:04:47.464Z,12.70
2022-10-18T19:07:14.834Z,12.60
2022-10-18T19:09:43.456Z,12.60
2022-10-18T19:12:10.792Z,12.70
2022-10-18T19:14:38.051Z,12.60
2022-10-18T19:17:07.206Z,12.70
2022-10-18T19:19:34.558Z,12.70
2022-10-18T19:22:08.406Z,12.60
2022-10-18T19:24:35.885Z,12.70
2022-10-18T19:27:09.734Z,12.60
2022-10-18T19:29:39.217Z,12.70
2022-10-18T19:32:12.070Z,12.70
2022-10-18T19:34:39.627Z,12.70
2022-10-18T19:37:07.994Z,12.80
2022-10-18T19:39:36.199Z,12.60
2022-10-18T19:42:06.838Z,12.60
2022-10-18T19:44:36.130Z,12.40
2022-10-18T19:47:08.154Z,12.30
2022-10-18T19:49:35.362Z,12.10
2022-10-18T19:52:02.952Z,12.00
2022-10-18T19:54:30.303Z,11.90
2022-10-18T19:56:57.650Z,11.80
2022-10-18T19:59:25.272Z,11.70
2022-10-18T20:01:52.741Z,11.50
2022-10-18T20:04:20.045Z,11.40
2022-10-18T20:06:47.652Z,11.40
2022-10-18T20:09:19.324Z,11.30
2022-10-18T20:11:48.114Z,11.20
2022-10-18T20:14:15.386Z,11.10
2022-10-18T20:16:42.731Z,11.00
2022-10-18T20:19:10.354Z,10.90
2022-10-18T20:21:37.814Z,10.80
2022-10-18T20:24:06.451Z,10.80
2022-10-18T20:26:34.627Z,10.70
2022-10-18T20:29:02.029Z,10.60
2022-10-18T20:31:32.017Z,10.50
2022-10-18T20:34:01.661Z,10.50
2022-10-18T20:36:31.138Z,10.40
2022-10-18T20:38:59.278Z,10.40
2022-10-18T20:41:33.789Z,10.40
2022-10-18T20:44:03.278Z,10.40
2022-10-18T20:46:33.102Z,10.40
2022-10-18T20:49:00.818Z,10.30
2022-10-18T20:51:28.272Z,10.30
2022-10-18T20:53:56.252Z,10.40
2022-10-18T20:56:27.169Z,10.50
2022-10-18T20:58:56.602Z,10.50
2022-10-18T21:01:29.820Z,10.50
2022-10-18T21:03:58.683Z,10.50
2022-10-18T21:06:28.353Z,10.60
2022-10-18T21:09:00.828Z,10.50
2022-10-18T21:11:30.314Z,10.60
2022-10-18T21:14:00.285Z,10.70
2022-10-18T21:16:27.907Z,10.70
2022-10-18T21:18:55.597Z,10.60
2022-10-18T21:21:24.790Z,10.60
2022-10-18T21:23:52.663Z,10.60
2022-10-18T21:26:25.740Z,10.80
2022-10-18T21:28:58.665Z,10.90
2022-10-18T21:31:31.649Z,11.00
2022-10-18T21:34:01.499Z,11.10
2022-10-18T21:36:32.208Z,11.30
2022-10-18T21:38:59.546Z,11.40
2022-10-18T21:41:27.006Z,11.70
2022-10-18T21:43:55.432Z,11.70
2022-10-18T21:46:26.248Z,11.70
2022-10-18T21:48:55.416Z,11.70
2022-10-18T21:51:25.128Z,11.70
2022-10-18T21:53:55.316Z,11.70
2022-10-18T21:56:28.423Z,11.70
2022-10-18T21:58:56.605Z,11.70
2022-10-18T22:01:35.460Z,11.70
2022-10-18T22:04:05.897Z,11.70
2022-10-18T22:09:05.932Z,11.90
2022-10-18T22:11:39.948Z,12.00
2022-10-18T22:14:07.285Z,12.10
2022-10-18T22:16:35.045Z,12.20
2022-10-18T22:19:04.857Z,12.20
2022-10-18T22:21:33.161Z,12.40
2022-10-18T22:24:03.496Z,12.70
2022-10-18T22:26:34.624Z,12.70
2022-10-18T22:29:05.945Z,12.80
2022-10-18T22:31:36.095Z,12.80
2022-10-18T22:34:06.812Z,12.80
2022-10-18T22:36:35.203Z,12.70
2022-10-18T22:39:03.046Z,12.70
2022-10-18T22:41:31.014Z,12.70
2022-10-18T22:44:01.106Z,12.70
2022-10-18T22:46:31.257Z,12.80
2022-10-18T22:48:58.669Z,12.70
2022-10-18T22:51:26.206Z,12.60
2022-10-18T22:53:53.522Z,12.50
2022-10-18T22:56:22.133Z,12.40
2022-10-18T22:58:50.369Z,12.40
2022-10-18T23:01:20.393Z,12.40
2022-10-18T23:03:52.944Z,12.20
2022-10-18T23:06:26.145Z,12.30
2022-10-18T23:08:54.990Z,12.30
2022-10-18T23:11:23.034Z,12.20
2022-10-18T23:13:50.734Z,12.10
2022-10-18T23:16:18.102Z,12.10
2022-10-18T23:18:49.903Z,12.00
2022-10-18T23:21:17.666Z,11.90
2022-10-18T23:23:45.249Z,11.90
2022-10-18T23:26:14.992Z,11.80
2022-10-18T23:28:44.742Z,11.70
2022-10-18T23:31:18.265Z,11.40
2022-10-18T23:33:47.277Z,11.40
2022-10-18T23:36:15.583Z,11.20
2022-10-18T23:38:43.505Z,11.30
2022-10-18T23:41:12.662Z,11.40
2022-10-18T23:43:40.745Z,11.30
2022-10-18T23:46:08.357Z,11.20
2022-10-18T23:48:35.974Z,11.10
2022-10-18T23:51:03.808Z,11.00
2022-10-18T23:53:31.684Z,10.80
2022-10-18T23:56:05.494Z,10.70
2022-10-18T23:58:34.212Z,10.80
